sensor_id;sensor_type;location;lat;lon;timestamp;P1;durP1;ratioP1;P2;durP2;ratioP2
76701;SDS011;65630;44.498;0.166;2022-12-16T00:12:37;13.03;;;9.17;;
76701;SDS011;65630;44.498;0.166;2022-12-16T00:26:29;14.10;;;9.97;;
76701;SDS011;65630;44.498;0.166;2022-12-16T00:40:20;13.50;;;7.83;;
76701;SDS011;65630;44.498;0.166;2022-12-16T00:54:10;20.43;;;11.60;;
76701;SDS011;65630;44.498;0.166;2022-12-16T01:08:01;14.23;;;9.30;;
76701;SDS011;65630;44.498;0.166;2022-12-16T01:21:52;15.30;;;9.70;;
76701;SDS011;65630;44.498;0.166;2022-12-16T01:35:43;14.33;;;9.67;;
76701;SDS011;65630;44.498;0.166;2022-12-16T01:49:35;17.07;;;10.10;;
76701;SDS011;65630;44.498;0.166;2022-12-16T02:03:27;15.07;;;10.17;;
76701;SDS011;65630;44.498;0.166;2022-12-16T02:17:17;20.57;;;9.93;;
76701;SDS011;65630;44.498;0.166;2022-12-16T02:31:10;16.50;;;10.10;;
76701;SDS011;65630;44.498;0.166;2022-12-16T02:44:59;16.30;;;11.23;;
76701;SDS011;65630;44.498;0.166;2022-12-16T02:58:49;17.50;;;11.63;;
76701;SDS011;65630;44.498;0.166;2022-12-16T03:12:40;19.40;;;11.93;;
76701;SDS011;65630;44.498;0.166;2022-12-16T03:26:32;16.97;;;11.77;;
76701;SDS011;65630;44.498;0.166;2022-12-16T03:40:20;22.70;;;12.07;;
76701;SDS011;65630;44.498;0.166;2022-12-16T03:54:12;19.07;;;10.87;;
76701;SDS011;65630;44.498;0.166;2022-12-16T04:08:01;19.93;;;12.03;;
76701;SDS011;65630;44.498;0.166;2022-12-16T04:21:52;24.67;;;12.60;;
76701;SDS011;65630;44.498;0.166;2022-12-16T04:35:43;13.13;;;7.87;;
76701;SDS011;65630;44.498;0.166;2022-12-16T04:49:34;15.83;;;8.93;;
76701;SDS011;65630;44.498;0.166;2022-12-16T05:03:24;15.77;;;9.03;;
76701;SDS011;65630;44.498;0.166;2022-12-16T05:17:14;10.83;;;7.53;;
76701;SDS011;65630;44.498;0.166;2022-12-16T05:31:05;8.63;;;7.33;;
76701;SDS011;65630;44.498;0.166;2022-12-16T05:44:56;14.43;;;7.30;;
76701;SDS011;65630;44.498;0.166;2022-12-16T05:58:47;8.77;;;5.70;;
76701;SDS011;65630;44.498;0.166;2022-12-16T06:12:36;9.33;;;6.43;;
76701;SDS011;65630;44.498;0.166;2022-12-16T06:26:27;9.37;;;6.57;;
76701;SDS011;65630;44.498;0.166;2022-12-16T06:40:18;8.87;;;5.17;;
76701;SDS011;65630;44.498;0.166;2022-12-16T06:54:10;7.17;;;4.80;;
76701;SDS011;65630;44.498;0.166;2022-12-16T07:07:59;5.60;;;4.50;;
76701;SDS011;65630;44.498;0.166;2022-12-16T07:21:50;9.30;;;5.10;;
76701;SDS011;65630;44.498;0.166;2022-12-16T07:35:41;11.50;;;6.07;;
76701;SDS011;65630;44.498;0.166;2022-12-16T07:49:31;9.00;;;5.90;;
76701;SDS011;65630;44.498;0.166;2022-12-16T08:03:23;11.87;;;7.63;;
76701;SDS011;65630;44.498;0.166;2022-12-16T08:17:17;12.57;;;7.60;;
76701;SDS011;65630;44.498;0.166;2022-12-16T08:31:04;14.60;;;8.20;;
76701;SDS011;65630;44.498;0.166;2022-12-16T08:44:55;10.60;;;6.73;;
76701;SDS011;65630;44.498;0.166;2022-12-16T08:58:47;10.07;;;6.77;;
76701;SDS011;65630;44.498;0.166;2022-12-16T09:12:36;12.73;;;8.03;;
76701;SDS011;65630;44.498;0.166;2022-12-16T09:26:26;8.97;;;5.73;;
76701;SDS011;65630;44.498;0.166;2022-12-16T09:40:17;10.30;;;6.10;;
76701;SDS011;65630;44.498;0.166;2022-12-16T09:54:08;8.73;;;5.77;;
76701;SDS011;65630;44.498;0.166;2022-12-16T10:08:02;9.80;;;7.00;;
76701;SDS011;65630;44.498;0.166;2022-12-16T10:21:52;14.90;;;7.20;;
76701;SDS011;65630;44.498;0.166;2022-12-16T10:35:43;9.30;;;7.03;;
76701;SDS011;65630;44.498;0.166;2022-12-16T10:49:34;17.97;;;8.20;;
76701;SDS011;65630;44.498;0.166;2022-12-16T11:03:25;10.53;;;7.27;;
76701;SDS011;65630;44.498;0.166;2022-12-16T11:17:16;11.60;;;7.70;;
76701;SDS011;65630;44.498;0.166;2022-12-16T11:31:05;17.77;;;9.37;;
76701;SDS011;65630;44.498;0.166;2022-12-16T11:44:56;14.07;;;9.43;;
76701;SDS011;65630;44.498;0.166;2022-12-16T11:58:48;16.73;;;9.30;;
76701;SDS011;65630;44.498;0.166;2022-12-16T12:12:44;15.73;;;9.70;;
76701;SDS011;65630;44.498;0.166;2022-12-16T12:26:31;15.77;;;9.70;;
76701;SDS011;65630;44.498;0.166;2022-12-16T12:40:28;17.80;;;11.37;;
76701;SDS011;65630;44.498;0.166;2022-12-16T12:54:13;30.53;;;16.90;;
76701;SDS011;65630;44.498;0.166;2022-12-16T13:21:52;17.93;;;10.33;;
76701;SDS011;65630;44.498;0.166;2022-12-16T13:49:43;19.77;;;9.03;;
76701;SDS011;65630;44.498;0.166;2022-12-16T14:03:37;15.03;;;9.93;;
76701;SDS011;65630;44.498;0.166;2022-12-16T14:17:17;13.23;;;9.20;;
76701;SDS011;65630;44.498;0.166;2022-12-16T14:45:00;11.10;;;7.33;;
76701;SDS011;65630;44.498;0.166;2022-12-16T15:12:46;6.43;;;5.17;;
76701;SDS011;65630;44.498;0.166;2022-12-16T15:26:37;-1.00;;;-1.00;;
76701;SDS011;65630;44.498;0.166;2022-12-16T15:40:27;8.50;;;6.20;;
76701;SDS011;65630;44.498;0.166;2022-12-16T15:54:17;9.90;;;5.83;;
76701;SDS011;65630;44.498;0.166;2022-12-16T16:08:05;8.03;;;6.03;;
76701;SDS011;65630;44.498;0.166;2022-12-16T16:21:52;15.23;;;7.90;;
76701;SDS011;65630;44.498;0.166;2022-12-16T16:35:40;17.03;;;8.30;;
76701;SDS011;65630;44.498;0.166;2022-12-16T16:49:31;11.40;;;5.47;;
76701;SDS011;65630;44.498;0.166;2022-12-16T17:03:21;9.93;;;6.30;;
76701;SDS011;65630;44.498;0.166;2022-12-16T17:17:10;12.50;;;6.23;;
76701;SDS011;65630;44.498;0.166;2022-12-16T17:30:58;11.30;;;6.40;;
76701;SDS011;65630;44.498;0.166;2022-12-16T17:44:48;8.10;;;4.40;;
76701;SDS011;65630;44.498;0.166;2022-12-16T17:58:39;6.53;;;3.87;;
76701;SDS011;65630;44.498;0.166;2022-12-16T18:12:29;8.07;;;4.67;;
76701;SDS011;65630;44.498;0.166;2022-12-16T18:26:20;11.17;;;5.07;;
76701;SDS011;65630;44.498;0.166;2022-12-16T18:40:09;8.33;;;4.83;;
76701;SDS011;65630;44.498;0.166;2022-12-16T18:53:59;8.20;;;4.90;;
76701;SDS011;65630;44.498;0.166;2022-12-16T19:07:50;10.80;;;5.50;;
76701;SDS011;65630;44.498;0.166;2022-12-16T19:21:39;12.10;;;6.60;;
76701;SDS011;65630;44.498;0.166;2022-12-16T19:35:31;15.10;;;7.77;;
76701;SDS011;65630;44.498;0.166;2022-12-16T19:49:22;13.00;;;7.03;;
76701;SDS011;65630;44.498;0.166;2022-12-16T20:03:14;8.77;;;4.73;;
76701;SDS011;65630;44.498;0.166;2022-12-16T20:17:03;-1.00;;;-1.00;;
76701;SDS011;65630;44.498;0.166;2022-12-16T20:30:53;12.03;;;5.47;;
76701;SDS011;65630;44.498;0.166;2022-12-16T20:44:44;10.10;;;5.43;;
76701;SDS011;65630;44.498;0.166;2022-12-16T20:58:35;14.00;;;7.17;;
76701;SDS011;65630;44.498;0.166;2022-12-16T21:12:25;15.87;;;5.50;;
76701;SDS011;65630;44.498;0.166;2022-12-16T21:26:15;9.90;;;5.07;;
76701;SDS011;65630;44.498;0.166;2022-12-16T21:40:07;12.37;;;6.23;;
76701;SDS011;65630;44.498;0.166;2022-12-16T21:53:56;8.73;;;5.13;;
76701;SDS011;65630;44.498;0.166;2022-12-16T22:07:46;11.37;;;6.07;;
76701;SDS011;65630;44.498;0.166;2022-12-16T22:21:38;11.80;;;6.23;;
76701;SDS011;65630;44.498;0.166;2022-12-16T22:35:26;9.53;;;4.93;;
76701;SDS011;65630;44.498;0.166;2022-12-16T22:49:16;13.13;;;7.23;;
76701;SDS011;65630;44.498;0.166;2022-12-16T23:03:11;11.20;;;5.90;;
76701;SDS011;65630;44.498;0.166;2022-12-16T23:16:56;9.73;;;5.43;;
76701;SDS011;65630;44.498;0.166;2022-12-16T23:30:50;11.07;;;5.53;;
76701;SDS011;65630;44.498;0.166;2022-12-16T23:44:37;7.50;;;4.90;;
76701;SDS011;65630;44.498;0.166;2022-12-16T23:58:29;11.57;;;5.43;;
